Map

Track Data

SID SEASON NUMBER BASIN SUBBASIN NAME ISO_TIME NATURE LAT LON WMO_WIND WMO_PRES WMO_AGENCY TRACK_TYPE DIST2LAND LANDFALL IFLAG USA_AGENCY USA_ATCF_ID USA_LAT USA_LON USA_RECORD USA_STATUS USA_WIND USA_PRES USA_SSHS USA_R34_NE USA_R34_SE USA_R34_SW USA_R34_NW USA_R50_NE USA_R50_SE USA_R50_SW USA_R50_NW USA_R64_NE USA_R64_SE USA_R64_SW USA_R64_NW USA_POCI USA_ROCI USA_RMW USA_EYE TOKYO_LAT TOKYO_LON TOKYO_GRADE TOKYO_WIND TOKYO_PRES TOKYO_R50_DIR TOKYO_R50_LONG TOKYO_R50_SHORT TOKYO_R30_DIR TOKYO_R30_LONG TOKYO_R30_SHORT TOKYO_LAND CMA_LAT CMA_LON CMA_CAT CMA_WIND CMA_PRES HKO_LAT HKO_LON HKO_CAT HKO_WIND HKO_PRES NEWDELHI_LAT NEWDELHI_LON NEWDELHI_GRADE NEWDELHI_WIND NEWDELHI_PRES NEWDELHI_CI NEWDELHI_DP NEWDELHI_POCI REUNION_LAT REUNION_LON REUNION_TYPE REUNION_WIND REUNION_PRES REUNION_TNUM REUNION_CI REUNION_RMW REUNION_R34_NE REUNION_R34_SE REUNION_R34_SW REUNION_R34_NW REUNION_R50_NE REUNION_R50_SE REUNION_R50_SW REUNION_R50_NW REUNION_R64_NE REUNION_R64_SE REUNION_R64_SW REUNION_R64_NW BOM_LAT BOM_LON BOM_TYPE BOM_WIND BOM_PRES BOM_TNUM BOM_CI BOM_RMW BOM_R34_NE BOM_R34_SE BOM_R34_SW BOM_R34_NW BOM_R50_NE BOM_R50_SE BOM_R50_SW BOM_R50_NW BOM_R64_NE BOM_R64_SE BOM_R64_SW BOM_R64_NW BOM_ROCI BOM_POCI BOM_EYE BOM_POS_METHOD BOM_PRES_METHOD NADI_LAT NADI_LON NADI_CAT NADI_WIND NADI_PRES WELLINGTON_LAT WELLINGTON_LON WELLINGTON_WIND WELLINGTON_PRES DS824_LAT DS824_LON DS824_STAGE DS824_WIND DS824_PRES TD9636_LAT TD9636_LON TD9636_STAGE TD9636_WIND TD9636_PRES TD9635_LAT TD9635_LON TD9635_WIND TD9635_PRES TD9635_ROCI NEUMANN_LAT NEUMANN_LON NEUMANN_CLASS NEUMANN_WIND NEUMANN_PRES MLC_LAT MLC_LON MLC_CLASS MLC_WIND MLC_PRES USA_GUST BOM_GUST BOM_GUST_PER REUNION_GUST REUNION_GUST_PER USA_SEAHGT USA_SEARAD_NE USA_SEARAD_SE USA_SEARAD_SW USA_SEARAD_NW STORM_SPEED STORM_DIR
1894070S18069 1894 14 SI MM NOT_NAMED 1894-03-11 06:00:00 NR -18.1000 69.0000 reunion main 1201 1201 _____O________ -1 -18.1000 69.0000 99 9.90000 1 239
1894070S18069 1894 14 SI MM NOT_NAMED 1894-03-11 09:00:00 NR -18.1287 68.9567 main 1201 1188 _____P________ -1 -18.1287 68.9567 99 1 235
1894070S18069 1894 14 SI MM NOT_NAMED 1894-03-11 12:00:00 NR -18.1606 68.9092 main 1188 1188 _____P________ -1 -18.1606 68.9092 99 1 234
1894070S18069 1894 14 SI MM NOT_NAMED 1894-03-11 15:00:00 NR -18.1990 68.8533 main 1188 1178 _____P________ -1 -18.1990 68.8533 99 1 234
1894070S18069 1894 14 SI MM NOT_NAMED 1894-03-11 18:00:00 NR -18.2471 68.7848 main 1178 1165 _____P________ -1 -18.2471 68.7848 99 2 234
1894070S18069 1894 14 SI MM NOT_NAMED 1894-03-11 21:00:00 NR -18.3080 68.6994 main 1165 1152 _____P________ -1 -18.3080 68.6994 99 2 233
1894070S18069 1894 14 SI MM NOT_NAMED 1894-03-12 00:00:00 NR -18.3850 68.5930 main 1152 1139 _____P________ -1 -18.3850 68.5930 99 3 233
1894070S18069 1894 14 SI MM NOT_NAMED 1894-03-12 03:00:00 NR -18.4813 68.4613 main 1139 1116 _____P________ -1 -18.4813 68.4613 99 4 232
1894070S18069 1894 14 SI MM NOT_NAMED 1894-03-12 06:00:00 NR -18.6000 68.3000 reunion main 1116 1094 _____O________ -1 -18.6000 68.3000 99 9.90000 4 232
1894070S18069 1894 14 SI MM NOT_NAMED 1894-03-12 09:00:00 NR -18.7434 68.1060 main 1094 1069 _____P________ -1 -18.7434 68.1060 99 5 232
1894070S18069 1894 14 SI MM NOT_NAMED 1894-03-12 12:00:00 NR -18.9105 67.8817 main 1069 1034 _____P________ -1 -18.9105 67.8817 99 6 232
1894070S18069 1894 14 SI MM NOT_NAMED 1894-03-12 15:00:00 NR -19.0992 67.6306 main 1034 1010 _____P________ -1 -19.0992 67.6306 99 6 231
1894070S18069 1894 14 SI MM NOT_NAMED 1894-03-12 18:00:00 NR -19.3076 67.3564 main 1010 976 _____P________ -1 -19.3076 67.3564 99 7 231
1894070S18069 1894 14 SI MM NOT_NAMED 1894-03-12 21:00:00 NR -19.5338 67.0626 main 976 941 _____P________ -1 -19.5338 67.0626 99 7 231
1894070S18069 1894 14 SI MM NOT_NAMED 1894-03-13 00:00:00 NR -19.7759 66.7528 main 941 898 _____P________ -1 -19.7759 66.7528 99 8 230
1894070S18069 1894 14 SI MM NOT_NAMED 1894-03-13 03:00:00 NR -20.0319 66.4308 main 898 865 _____P________ -1 -20.0319 66.4308 99 8 229
1894070S18069 1894 14 SI MM NOT_NAMED 1894-03-13 06:00:00 NR -20.3000 66.1000 reunion main 865 833 _____O________ -1 -20.3000 66.1000 99 9.90000 9 229
1894070S18069 1894 14 SI MM NOT_NAMED 1894-03-13 09:00:00 NR -20.6028 65.7381 main 823 793 _____P________ -1 -20.6028 65.7381 99 9 228
1894070S18069 1894 14 SI MM NOT_NAMED 1894-03-13 12:00:00 NR -20.9246 65.3581 main 793 755 _____P________ -1 -20.9246 65.3581 99 10 228
1894070S18069 1894 14 SI MM NOT_NAMED 1894-03-13 15:00:00 NR -21.2554 64.9707 main 756 718 _____P________ -1 -21.2554 64.9707 99 10 227
1894070S18069 1894 14 SI MM NOT_NAMED 1894-03-13 18:00:00 NR -21.5853 64.5863 main 720 687 _____P________ -1 -21.5853 64.5863 99 10 227
1894070S18069 1894 14 SI MM NOT_NAMED 1894-03-13 21:00:00 NR -21.9044 64.2160 main 687 663 _____P________ -1 -21.9044 64.2160 99 9 227
1894070S18069 1894 14 SI MM NOT_NAMED 1894-03-14 00:00:00 NR -22.2030 63.8706 main 666 644 _____P________ -1 -22.2030 63.8706 99 8 227
1894070S18069 1894 14 SI MM NOT_NAMED 1894-03-14 03:00:00 NR -22.4714 63.5615 main 648 628 _____P________ -1 -22.4714 63.5615 99 7 227
1894070S18069 1894 14 SI MM NOT_NAMED 1894-03-14 06:00:00 NR -22.7000 63.3000 reunion main 628 614 _____O________ -1 -22.7000 63.3000 99 9.90000 6 226
1894070S18069 1894 14 SI MM NOT_NAMED 1894-03-14 09:00:00 NR -22.8820 63.0945 main 618 605 _____P________ -1 -22.8820 63.0945 99 5 226
1894070S18069 1894 14 SI MM NOT_NAMED 1894-03-14 12:00:00 NR -23.0210 62.9409 main 605 601 _____P________ -1 -23.0210 62.9409 99 3 225
1894070S18069 1894 14 SI MM NOT_NAMED 1894-03-14 15:00:00 NR -23.1234 62.8321 main 601 601 _____P________ -1 -23.1234 62.8321 99 2 224
1894070S18069 1894 14 SI MM NOT_NAMED 1894-03-14 18:00:00 NR -23.1952 62.7606 main 606 597 _____P________ -1 -23.1952 62.7606 99 2 221
1894070S18069 1894 14 SI MM NOT_NAMED 1894-03-14 21:00:00 NR -23.2427 62.7192 main 597 597 _____P________ -1 -23.2427 62.7192 99 1 218
1894070S18069 1894 14 SI MM NOT_NAMED 1894-03-15 00:00:00 NR -23.2719 62.7003 main 603 603 _____P________ -1 -23.2719 62.7003 99 1 0
1894070S18069 1894 14 SI MM NOT_NAMED 1894-03-15 03:00:00 NR -23.2890 62.6964 main 603 603 _____P________ -1 -23.2890 62.6964 99 0 225
1894070S18069 1894 14 SI MM NOT_NAMED 1894-03-15 06:00:00 NR -23.3000 62.7000 reunion main 603 _____O________ -1 -23.3000 62.7000 99 9.90000 0 0

About IBTrACS Database

This database is a web-friendly format of International Best Track Archive for Climate Stewardship (IBTrACS), a global best track data archive curated by NOAA dating back to 1842.

Updated: 2021-12-01